sensor_id;sensor_type;location;lat;lon;timestamp;pressure;altitude;pressure_sealevel;temperature;humidity
3654;BME280;70277;54.302;10.064;2023-06-22T00:02:00;101771.75;;;14.33;74.40
3654;BME280;70277;54.302;10.064;2023-06-22T00:04:27;101766.59;;;14.32;74.43
3654;BME280;70277;54.302;10.064;2023-06-22T00:06:54;101762.97;;;14.26;74.59
3654;BME280;70277;54.302;10.064;2023-06-22T00:09:21;101772.25;;;14.30;73.63
3654;BME280;70277;54.302;10.064;2023-06-22T00:11:47;101777.47;;;14.32;73.76
3654;BME280;70277;54.302;10.064;2023-06-22T00:14:14;101771.69;;;14.28;73.45
3654;BME280;70277;54.302;10.064;2023-06-22T00:16:40;101771.13;;;14.26;73.77
3654;BME280;70277;54.302;10.064;2023-06-22T00:19:09;101772.34;;;14.19;73.74
3654;BME280;70277;54.302;10.064;2023-06-22T00:21:37;101776.75;;;14.20;73.94
3654;BME280;70277;54.302;10.064;2023-06-22T00:24:04;101770.94;;;14.16;74.25
3654;BME280;70277;54.302;10.064;2023-06-22T00:26:31;101773.59;;;14.11;73.92
3654;BME280;70277;54.302;10.064;2023-06-22T00:28:57;101780.50;;;14.02;74.85
3654;BME280;70277;54.302;10.064;2023-06-22T00:31:24;101780.00;;;14.05;74.78
3654;BME280;70277;54.302;10.064;2023-06-22T00:33:50;101768.88;;;14.06;75.00
3654;BME280;70277;54.302;10.064;2023-06-22T00:36:17;101777.78;;;14.02;74.90
3654;BME280;70277;54.302;10.064;2023-06-22T00:38:43;101777.78;;;14.02;74.72
3654;BME280;70277;54.302;10.064;2023-06-22T00:41:10;101780.84;;;13.88;74.64
3654;BME280;70277;54.302;10.064;2023-06-22T00:43:36;101780.69;;;13.95;73.88
3654;BME280;70277;54.302;10.064;2023-06-22T00:46:03;101781.44;;;13.91;74.39
3654;BME280;70277;54.302;10.064;2023-06-22T00:48:29;101789.00;;;13.88;74.20
3654;BME280;70277;54.302;10.064;2023-06-22T00:50:56;101788.41;;;13.86;73.82
3654;BME280;70277;54.302;10.064;2023-06-22T00:53:22;101791.63;;;13.83;73.45
3654;BME280;70277;54.302;10.064;2023-06-22T00:55:49;101788.91;;;13.83;73.21
3654;BME280;70277;54.302;10.064;2023-06-22T00:58:19;101789.16;;;13.82;73.32
3654;BME280;70277;54.302;10.064;2023-06-22T01:00:48;101802.19;;;13.80;74.02
3654;BME280;70277;54.302;10.064;2023-06-22T01:03:15;101799.53;;;13.68;74.20
3654;BME280;70277;54.302;10.064;2023-06-22T01:05:43;101800.81;;;13.65;74.10
3654;BME280;70277;54.302;10.064;2023-06-22T01:08:31;101799.34;;;13.58;75.43
3654;BME280;70277;54.302;10.064;2023-06-22T01:11:08;101797.28;;;13.65;77.35
3654;BME280;70277;54.302;10.064;2023-06-22T01:13:46;101794.72;;;13.58;77.47
3654;BME280;70277;54.302;10.064;2023-06-22T01:16:31;101796.03;;;13.56;76.50
3654;BME280;70277;54.302;10.064;2023-06-22T01:19:01;101796.94;;;13.61;75.57
3654;BME280;70277;54.302;10.064;2023-06-22T01:21:31;101800.50;;;13.62;75.35
3654;BME280;70277;54.302;10.064;2023-06-22T01:26:40;101788.47;;;13.58;74.94
3654;BME280;70277;54.302;10.064;2023-06-22T01:29:10;101792.22;;;13.57;74.61
3654;BME280;70277;54.302;10.064;2023-06-22T01:31:39;101790.91;;;13.59;74.99
3654;BME280;70277;54.302;10.064;2023-06-22T01:34:08;101788.59;;;13.51;73.86
3654;BME280;70277;54.302;10.064;2023-06-22T01:36:35;101793.25;;;13.39;75.99
3654;BME280;70277;54.302;10.064;2023-06-22T01:39:04;101793.72;;;13.36;75.67
3654;BME280;70277;54.302;10.064;2023-06-22T01:41:34;101787.47;;;13.35;75.08
3654;BME280;70277;54.302;10.064;2023-06-22T01:44:03;101784.75;;;13.35;75.86
3654;BME280;70277;54.302;10.064;2023-06-22T01:46:32;101782.63;;;13.37;75.05
3654;BME280;70277;54.302;10.064;2023-06-22T01:48:58;101780.28;;;13.29;74.18
3654;BME280;70277;54.302;10.064;2023-06-22T01:51:25;101776.50;;;13.30;74.79
3654;BME280;70277;54.302;10.064;2023-06-22T01:53:51;101773.44;;;13.27;75.67
3654;BME280;70277;54.302;10.064;2023-06-22T01:56:18;101778.06;;;13.26;74.67
3654;BME280;70277;54.302;10.064;2023-06-22T01:59:01;101782.66;;;13.26;74.21
3654;BME280;70277;54.302;10.064;2023-06-22T02:01:50;101794.72;;;13.18;74.95
3654;BME280;70277;54.302;10.064;2023-06-22T02:04:21;101788.47;;;13.06;75.67
3654;BME280;70277;54.302;10.064;2023-06-22T02:06:55;101797.81;;;12.98;77.92
3654;BME280;70277;54.302;10.064;2023-06-22T02:09:23;101797.09;;;13.03;77.53
3654;BME280;70277;54.302;10.064;2023-06-22T02:11:53;101795.47;;;13.02;76.84
3654;BME280;70277;54.302;10.064;2023-06-22T02:14:23;101797.94;;;13.03;76.09
3654;BME280;70277;54.302;10.064;2023-06-22T02:16:51;101794.88;;;13.00;75.97
3654;BME280;70277;54.302;10.064;2023-06-22T02:19:22;101796.78;;;12.99;76.25
3654;BME280;70277;54.302;10.064;2023-06-22T02:21:49;101801.25;;;13.05;75.94
3654;BME280;70277;54.302;10.064;2023-06-22T02:24:16;101801.72;;;13.02;75.90
3654;BME280;70277;54.302;10.064;2023-06-22T02:26:43;101796.78;;;12.99;75.41
3654;BME280;70277;54.302;10.064;2023-06-22T02:29:11;101800.66;;;12.91;76.66
3654;BME280;70277;54.302;10.064;2023-06-22T02:31:38;101791.00;;;12.95;76.82
3654;BME280;70277;54.302;10.064;2023-06-22T02:34:04;101789.91;;;12.96;77.12
3654;BME280;70277;54.302;10.064;2023-06-22T02:36:31;101798.53;;;12.93;76.48
3654;BME280;70277;54.302;10.064;2023-06-22T02:38:59;101782.84;;;12.95;76.33
3654;BME280;70277;54.302;10.064;2023-06-22T02:41:27;101793.13;;;12.93;75.27
3654;BME280;70277;54.302;10.064;2023-06-22T02:43:54;101791.56;;;12.86;75.61
3654;BME280;70277;54.302;10.064;2023-06-22T02:46:20;101795.22;;;12.91;75.65
3654;BME280;70277;54.302;10.064;2023-06-22T02:48:47;101789.13;;;12.84;74.92
3654;BME280;70277;54.302;10.064;2023-06-22T02:51:14;101790.41;;;12.82;76.25
3654;BME280;70277;54.302;10.064;2023-06-22T02:53:41;101796.94;;;12.69;75.59
3654;BME280;70277;54.302;10.064;2023-06-22T02:56:10;101789.13;;;12.61;76.16
3654;BME280;70277;54.302;10.064;2023-06-22T02:58:38;101787.84;;;12.63;74.54
3654;BME280;70277;54.302;10.064;2023-06-22T03:01:05;101788.06;;;12.62;75.55
3654;BME280;70277;54.302;10.064;2023-06-22T03:03:32;101786.50;;;12.66;74.93
3654;BME280;70277;54.302;10.064;2023-06-22T03:05:59;101782.97;;;12.65;75.39
3654;BME280;70277;54.302;10.064;2023-06-22T03:08:28;101785.81;;;12.70;75.54
3654;BME280;70277;54.302;10.064;2023-06-22T03:10:55;101788.78;;;12.69;77.50
3654;BME280;70277;54.302;10.064;2023-06-22T03:13:23;101781.47;;;12.69;78.13
3654;BME280;70277;54.302;10.064;2023-06-22T03:15:49;101784.03;;;12.76;77.08
3654;BME280;70277;54.302;10.064;2023-06-22T03:18:16;101796.31;;;12.79;76.62
3654;BME280;70277;54.302;10.064;2023-06-22T03:20:42;101792.06;;;12.83;76.63
3654;BME280;70277;54.302;10.064;2023-06-22T03:23:09;101786.00;;;12.92;76.91
3654;BME280;70277;54.302;10.064;2023-06-22T03:25:35;101789.31;;;12.94;76.54
3654;BME280;70277;54.302;10.064;2023-06-22T03:28:02;101790.84;;;13.02;76.05
3654;BME280;70277;54.302;10.064;2023-06-22T03:30:28;101792.59;;;13.08;75.19
3654;BME280;70277;54.302;10.064;2023-06-22T03:32:55;101789.88;;;13.08;75.23
3654;BME280;70277;54.302;10.064;2023-06-22T03:35:22;101790.91;;;13.19;75.57
3654;BME280;70277;54.302;10.064;2023-06-22T03:37:49;101776.75;;;13.17;75.05
3654;BME280;70277;54.302;10.064;2023-06-22T03:40:16;101784.56;;;13.25;75.80
3654;BME280;70277;54.302;10.064;2023-06-22T03:42:42;101778.00;;;13.38;75.96
3654;BME280;70277;54.302;10.064;2023-06-22T03:45:09;101786.59;;;13.47;76.37
3654;BME280;70277;54.302;10.064;2023-06-22T03:47:36;101790.00;;;13.54;75.58
3654;BME280;70277;54.302;10.064;2023-06-22T03:50:03;101798.16;;;13.54;75.00
3654;BME280;70277;54.302;10.064;2023-06-22T03:52:30;101794.28;;;13.50;74.79
3654;BME280;70277;54.302;10.064;2023-06-22T03:54:56;101796.13;;;13.61;74.90
3654;BME280;70277;54.302;10.064;2023-06-22T03:57:23;101800.50;;;13.62;74.38
3654;BME280;70277;54.302;10.064;2023-06-22T03:59:50;101807.41;;;13.53;76.09
3654;BME280;70277;54.302;10.064;2023-06-22T04:02:16;101812.53;;;13.37;76.40
3654;BME280;70277;54.302;10.064;2023-06-22T04:04:43;101808.16;;;13.36;76.39
3654;BME280;70277;54.302;10.064;2023-06-22T04:07:09;101811.66;;;13.49;76.77
3654;BME280;70277;54.302;10.064;2023-06-22T04:09:36;101824.63;;;13.58;78.22
3654;BME280;70277;54.302;10.064;2023-06-22T04:12:03;101822.59;;;13.65;77.89
3654;BME280;70277;54.302;10.064;2023-06-22T04:14:29;101829.81;;;13.88;77.37
3654;BME280;70277;54.302;10.064;2023-06-22T04:16:57;101821.00;;;13.98;76.69
3654;BME280;70277;54.302;10.064;2023-06-22T04:19:23;101816.81;;;14.07;76.87
3654;BME280;70277;54.302;10.064;2023-06-22T04:21:50;101816.19;;;14.17;76.67
3654;BME280;70277;54.302;10.064;2023-06-22T04:24:16;101825.81;;;14.25;76.54
3654;BME280;70277;54.302;10.064;2023-06-22T04:26:43;101822.50;;;14.40;76.28
3654;BME280;70277;54.302;10.064;2023-06-22T04:29:11;101827.13;;;14.22;76.58
3654;BME280;70277;54.302;10.064;2023-06-22T04:31:38;101823.97;;;14.14;77.42
3654;BME280;70277;54.302;10.064;2023-06-22T04:34:06;101829.63;;;14.24;77.40
3654;BME280;70277;54.302;10.064;2023-06-22T04:36:38;101825.31;;;14.45;76.89
3654;BME280;70277;54.302;10.064;2023-06-22T04:39:06;101824.44;;;14.56;76.79
3654;BME280;70277;54.302;10.064;2023-06-22T04:41:33;101814.53;;;14.50;78.13
3654;BME280;70277;54.302;10.064;2023-06-22T04:44:15;101826.75;;;14.64;77.43
3654;BME280;70277;54.302;10.064;2023-06-22T04:46:58;101823.78;;;14.88;76.88
3654;BME280;70277;54.302;10.064;2023-06-22T04:49:30;101836.66;;;15.09;76.81
3654;BME280;70277;54.302;10.064;2023-06-22T04:52:04;101821.81;;;15.44;75.96
3654;BME280;70277;54.302;10.064;2023-06-22T04:54:31;101824.50;;;15.66;74.98
3654;BME280;70277;54.302;10.064;2023-06-22T04:57:06;101816.72;;;15.75;75.11
3654;BME280;70277;54.302;10.064;2023-06-22T04:59:38;101820.25;;;16.02;74.68
3654;BME280;70277;54.302;10.064;2023-06-22T05:02:08;101818.34;;;16.35;73.83
3654;BME280;70277;54.302;10.064;2023-06-22T05:04:35;101825.91;;;16.60;72.93
3654;BME280;70277;54.302;10.064;2023-06-22T05:07:06;101825.81;;;16.87;72.15
3654;BME280;70277;54.302;10.064;2023-06-22T05:09:33;101832.53;;;17.17;71.74
3654;BME280;70277;54.302;10.064;2023-06-22T05:12:02;101825.75;;;17.29;70.94
3654;BME280;70277;54.302;10.064;2023-06-22T05:14:34;101821.09;;;17.25;71.16
3654;BME280;70277;54.302;10.064;2023-06-22T05:17:01;101813.72;;;17.25;71.84
3654;BME280;70277;54.302;10.064;2023-06-22T05:19:30;101823.91;;;17.50;70.87
3654;BME280;70277;54.302;10.064;2023-06-22T05:22:00;101820.38;;;17.55;70.88
3654;BME280;70277;54.302;10.064;2023-06-22T05:24:27;101826.94;;;17.59;71.01
3654;BME280;70277;54.302;10.064;2023-06-22T05:26:53;101831.94;;;17.83;70.35
3654;BME280;70277;54.302;10.064;2023-06-22T05:29:20;101825.41;;;17.84;70.22
3654;BME280;70277;54.302;10.064;2023-06-22T05:31:49;101836.34;;;17.84;71.22
3654;BME280;70277;54.302;10.064;2023-06-22T05:34:15;101839.38;;;18.13;70.20
3654;BME280;70277;54.302;10.064;2023-06-22T05:36:42;101838.84;;;18.16;70.24
3654;BME280;70277;54.302;10.064;2023-06-22T05:39:11;101837.19;;;18.46;68.89
3654;BME280;70277;54.302;10.064;2023-06-22T05:41:39;101845.97;;;18.78;67.80
3654;BME280;70277;54.302;10.064;2023-06-22T05:44:06;101843.44;;;18.97;66.76
3654;BME280;70277;54.302;10.064;2023-06-22T05:46:33;101849.31;;;19.40;64.90
3654;BME280;70277;54.302;10.064;2023-06-22T05:48:59;101841.16;;;19.85;63.76
3654;BME280;70277;54.302;10.064;2023-06-22T05:51:25;101839.38;;;20.04;63.67
3654;BME280;70277;54.302;10.064;2023-06-22T05:53:52;101846.53;;;20.68;61.39
3654;BME280;70277;54.302;10.064;2023-06-22T05:56:18;101854.56;;;21.61;57.24
3654;BME280;70277;54.302;10.064;2023-06-22T05:58:48;101848.59;;;22.11;57.12
3654;BME280;70277;54.302;10.064;2023-06-22T06:01:14;101852.69;;;21.94;56.66
3654;BME280;70277;54.302;10.064;2023-06-22T06:03:42;101858.88;;;22.57;54.12
3654;BME280;70277;54.302;10.064;2023-06-22T06:06:09;101865.50;;;21.85;55.28
3654;BME280;70277;54.302;10.064;2023-06-22T06:08:38;101860.91;;;21.99;55.35
3654;BME280;70277;54.302;10.064;2023-06-22T06:11:04;101851.88;;;21.56;56.27
3654;BME280;70277;54.302;10.064;2023-06-22T06:13:32;101845.16;;;22.00;55.36
3654;BME280;70277;54.302;10.064;2023-06-22T06:15:58;101853.28;;;21.91;55.60
3654;BME280;70277;54.302;10.064;2023-06-22T06:18:25;101850.03;;;21.89;55.19
3654;BME280;70277;54.302;10.064;2023-06-22T06:20:52;101840.31;;;22.11;55.02
3654;BME280;70277;54.302;10.064;2023-06-22T06:23:19;101831.25;;;22.10;54.56
3654;BME280;70277;54.302;10.064;2023-06-22T06:25:45;101832.25;;;22.14;53.25
3654;BME280;70277;54.302;10.064;2023-06-22T06:28:12;101837.19;;;22.36;52.31
3654;BME280;70277;54.302;10.064;2023-06-22T06:30:38;101834.34;;;22.55;51.02
3654;BME280;70277;54.302;10.064;2023-06-22T06:33:05;101830.53;;;22.37;51.24
3654;BME280;70277;54.302;10.064;2023-06-22T06:35:35;101841.44;;;22.75;51.00
3654;BME280;70277;54.302;10.064;2023-06-22T06:38:02;101848.09;;;23.71;49.75
3654;BME280;70277;54.302;10.064;2023-06-22T06:40:28;101841.78;;;23.43;49.38
3654;BME280;70277;54.302;10.064;2023-06-22T06:42:56;101839.50;;;23.58;48.58
3654;BME280;70277;54.302;10.064;2023-06-22T06:45:23;101839.13;;;23.88;47.00
3654;BME280;70277;54.302;10.064;2023-06-22T06:47:52;101844.66;;;24.10;45.59
3654;BME280;70277;54.302;10.064;2023-06-22T06:50:19;101847.28;;;23.93;46.82
3654;BME280;70277;54.302;10.064;2023-06-22T06:52:46;101847.44;;;24.33;46.24
3654;BME280;70277;54.302;10.064;2023-06-22T06:55:12;101843.78;;;24.46;45.70
3654;BME280;70277;54.302;10.064;2023-06-22T06:57:41;101836.59;;;25.07;43.42
3654;BME280;70277;54.302;10.064;2023-06-22T07:00:10;101843.69;;;25.31;42.46
3654;BME280;70277;54.302;10.064;2023-06-22T07:02:40;101837.34;;;24.37;43.93
3654;BME280;70277;54.302;10.064;2023-06-22T07:05:08;101843.78;;;24.46;44.15
3654;BME280;70277;54.302;10.064;2023-06-22T07:07:35;101832.00;;;25.51;42.46
3654;BME280;70277;54.302;10.064;2023-06-22T07:10:05;101838.38;;;25.78;42.03
3654;BME280;70277;54.302;10.064;2023-06-22T07:12:32;101835.94;;;25.68;42.06
3654;BME280;70277;54.302;10.064;2023-06-22T07:15:03;101836.00;;;25.19;42.31
3654;BME280;70277;54.302;10.064;2023-06-22T07:17:31;101837.94;;;24.79;42.57
3654;BME280;70277;54.302;10.064;2023-06-22T07:20:01;101818.25;;;24.80;42.59
3654;BME280;70277;54.302;10.064;2023-06-22T07:22:28;101839.53;;;25.68;41.80
3654;BME280;70277;54.302;10.064;2023-06-22T07:24:54;101837.34;;;25.39;42.12
3654;BME280;70277;54.302;10.064;2023-06-22T07:27:21;101827.56;;;25.24;42.78
3654;BME280;70277;54.302;10.064;2023-06-22T07:29:48;101831.53;;;25.75;42.30
3654;BME280;70277;54.302;10.064;2023-06-22T07:32:14;101834.94;;;25.55;42.43
3654;BME280;70277;54.302;10.064;2023-06-22T07:34:41;101833.16;;;25.68;41.96
3654;BME280;70277;54.302;10.064;2023-06-22T07:37:10;101832.69;;;26.18;40.78
3654;BME280;70277;54.302;10.064;2023-06-22T07:39:37;101823.34;;;25.79;41.50
3654;BME280;70277;54.302;10.064;2023-06-22T07:42:04;101830.88;;;26.13;41.17
3654;BME280;70277;54.302;10.064;2023-06-22T07:44:31;101836.91;;;25.72;41.82
3654;BME280;70277;54.302;10.064;2023-06-22T07:46:58;101825.63;;;25.42;42.38
3654;BME280;70277;54.302;10.064;2023-06-22T07:49:24;101828.44;;;25.68;42.25
3654;BME280;70277;54.302;10.064;2023-06-22T07:51:50;101826.09;;;25.27;42.22
3654;BME280;70277;54.302;10.064;2023-06-22T07:54:17;101833.31;;;26.23;39.85
3654;BME280;70277;54.302;10.064;2023-06-22T07:56:44;101833.00;;;26.07;39.39
3654;BME280;70277;54.302;10.064;2023-06-22T07:59:10;101832.03;;;26.03;39.17
3654;BME280;70277;54.302;10.064;2023-06-22T08:01:37;101826.28;;;26.90;38.66
3654;BME280;70277;54.302;10.064;2023-06-22T08:04:03;101840.34;;;26.85;37.87
3654;BME280;70277;54.302;10.064;2023-06-22T08:06:32;101844.41;;;27.26;36.94
3654;BME280;70277;54.302;10.064;2023-06-22T08:08:58;101832.81;;;27.75;35.58
3654;BME280;70277;54.302;10.064;2023-06-22T08:11:25;101833.78;;;28.12;36.08
3654;BME280;70277;54.302;10.064;2023-06-22T08:13:52;101830.47;;;27.56;36.60
3654;BME280;70277;54.302;10.064;2023-06-22T08:16:18;101836.00;;;27.05;37.87
3654;BME280;70277;54.302;10.064;2023-06-22T08:18:45;101839.56;;;27.65;36.66
3654;BME280;70277;54.302;10.064;2023-06-22T08:21:11;101841.22;;;27.66;36.81
3654;BME280;70277;54.302;10.064;2023-06-22T08:23:38;101833.91;;;27.02;37.46
3654;BME280;70277;54.302;10.064;2023-06-22T08:26:04;101837.91;;;27.22;37.81
3654;BME280;70277;54.302;10.064;2023-06-22T08:28:31;101834.41;;;27.34;36.86
3654;BME280;70277;54.302;10.064;2023-06-22T08:30:59;101833.94;;;27.74;36.80
3654;BME280;70277;54.302;10.064;2023-06-22T08:33:26;101835.94;;;27.22;37.36
3654;BME280;70277;54.302;10.064;2023-06-22T08:35:55;101830.25;;;27.90;35.59
3654;BME280;70277;54.302;10.064;2023-06-22T08:38:22;101831.97;;;27.74;36.51
3654;BME280;70277;54.302;10.064;2023-06-22T08:40:48;101837.97;;;27.85;35.19
3654;BME280;70277;54.302;10.064;2023-06-22T08:43:15;101836.53;;;28.00;36.03
3654;BME280;70277;54.302;10.064;2023-06-22T08:45:41;101830.47;;;28.52;34.04
3654;BME280;70277;54.302;10.064;2023-06-22T08:48:09;101834.69;;;29.32;33.61
3654;BME280;70277;54.302;10.064;2023-06-22T08:50:36;101828.69;;;29.05;32.74
3654;BME280;70277;54.302;10.064;2023-06-22T08:53:02;101822.81;;;29.47;32.96
3654;BME280;70277;54.302;10.064;2023-06-22T08:55:29;101816.00;;;29.20;32.82
3654;BME280;70277;54.302;10.064;2023-06-22T08:57:56;101819.75;;;29.77;33.19
3654;BME280;70277;54.302;10.064;2023-06-22T09:00:22;101820.75;;;28.83;33.70
3654;BME280;70277;54.302;10.064;2023-06-22T09:02:49;101815.03;;;28.54;34.00
3654;BME280;70277;54.302;10.064;2023-06-22T09:05:16;101819.00;;;28.20;34.29
3654;BME280;70277;54.302;10.064;2023-06-22T09:07:43;101813.09;;;29.04;33.46
3654;BME280;70277;54.302;10.064;2023-06-22T09:10:09;101813.22;;;28.25;33.90
3654;BME280;70277;54.302;10.064;2023-06-22T09:12:36;101806.34;;;28.80;33.96
3654;BME280;70277;54.302;10.064;2023-06-22T09:15:04;101806.34;;;28.68;34.76
3654;BME280;70277;54.302;10.064;2023-06-22T09:17:37;101799.16;;;28.92;33.97
3654;BME280;70277;54.302;10.064;2023-06-22T09:20:04;101804.84;;;30.29;31.87
3654;BME280;70277;54.302;10.064;2023-06-22T09:22:33;101808.88;;;30.91;30.86
3654;BME280;70277;54.302;10.064;2023-06-22T09:25:00;101801.00;;;31.32;31.12
3654;BME280;70277;54.302;10.064;2023-06-22T09:27:26;101803.88;;;32.10;28.74
3654;BME280;70277;54.302;10.064;2023-06-22T09:29:53;101796.94;;;31.45;29.83
3654;BME280;70277;54.302;10.064;2023-06-22T09:32:19;101791.06;;;29.52;32.02
3654;BME280;70277;54.302;10.064;2023-06-22T09:34:46;101790.31;;;28.53;34.01
3654;BME280;70277;54.302;10.064;2023-06-22T09:37:12;101793.94;;;28.90;32.45
3654;BME280;70277;54.302;10.064;2023-06-22T09:39:39;101797.66;;;30.44;31.23
3654;BME280;70277;54.302;10.064;2023-06-22T09:42:06;101802.28;;;29.80;31.22
3654;BME280;70277;54.302;10.064;2023-06-22T09:44:32;101790.88;;;29.85;31.11
3654;BME280;70277;54.302;10.064;2023-06-22T09:46:59;101791.38;;;30.03;30.66
3654;BME280;70277;54.302;10.064;2023-06-22T09:49:26;101787.22;;;30.56;30.41
3654;BME280;70277;54.302;10.064;2023-06-22T09:52:11;101794.75;;;29.96;31.73
3654;BME280;70277;54.302;10.064;2023-06-22T09:54:38;101806.13;;;30.31;31.37
3654;BME280;70277;54.302;10.064;2023-06-22T09:57:04;101789.66;;;30.42;30.50
3654;BME280;70277;54.302;10.064;2023-06-22T09:59:31;101794.66;;;31.70;29.57
3654;BME280;70277;54.302;10.064;2023-06-22T10:01:57;101792.47;;;32.91;27.08
3654;BME280;70277;54.302;10.064;2023-06-22T10:04:23;101792.53;;;31.28;28.48
3654;BME280;70277;54.302;10.064;2023-06-22T10:06:51;101782.97;;;30.31;29.68
3654;BME280;70277;54.302;10.064;2023-06-22T10:09:18;101770.81;;;30.39;29.92
3654;BME280;70277;54.302;10.064;2023-06-22T10:11:44;101782.97;;;30.31;30.69
3654;BME280;70277;54.302;10.064;2023-06-22T10:14:11;101787.94;;;30.69;29.86
3654;BME280;70277;54.302;10.064;2023-06-22T10:16:38;101785.84;;;30.66;29.17
3654;BME280;70277;54.302;10.064;2023-06-22T10:19:04;101777.50;;;31.72;27.52
3654;BME280;70277;54.302;10.064;2023-06-22T10:21:31;101774.50;;;32.69;26.73
3654;BME280;70277;54.302;10.064;2023-06-22T10:23:58;101772.72;;;32.57;27.07
3654;BME280;70277;54.302;10.064;2023-06-22T10:26:25;101771.72;;;32.96;26.12
3654;BME280;70277;54.302;10.064;2023-06-22T10:28:55;101760.16;;;33.95;25.65
3654;BME280;70277;54.302;10.064;2023-06-22T10:31:41;101757.66;;;33.86;26.03
3654;BME280;70277;54.302;10.064;2023-06-22T10:34:07;101772.69;;;32.11;27.65
3654;BME280;70277;54.302;10.064;2023-06-22T10:36:34;101761.97;;;29.93;30.31
3654;BME280;70277;54.302;10.064;2023-06-22T10:39:00;101763.72;;;29.29;32.89
3654;BME280;70277;54.302;10.064;2023-06-22T10:41:28;101760.81;;;29.94;31.20
3654;BME280;70277;54.302;10.064;2023-06-22T10:43:56;101756.16;;;30.14;31.66
3654;BME280;70277;54.302;10.064;2023-06-22T10:46:27;101748.72;;;32.14;29.05
3654;BME280;70277;54.302;10.064;2023-06-22T10:48:54;101744.50;;;31.81;27.66
3654;BME280;70277;54.302;10.064;2023-06-22T10:51:23;101749.50;;;31.91;27.96
3654;BME280;70277;54.302;10.064;2023-06-22T10:53:49;101748.25;;;31.89;27.97
3654;BME280;70277;54.302;10.064;2023-06-22T10:56:18;101748.63;;;31.48;27.96
3654;BME280;70277;54.302;10.064;2023-06-22T10:58:45;101741.38;;;31.28;28.83
3654;BME280;70277;54.302;10.064;2023-06-22T11:01:13;101732.88;;;29.50;31.79
3654;BME280;70277;54.302;10.064;2023-06-22T11:03:59;101728.69;;;30.00;31.51
3654;BME280;70277;54.302;10.064;2023-06-22T11:06:26;101740.50;;;31.24;30.26
3654;BME280;70277;54.302;10.064;2023-06-22T11:08:52;101742.19;;;31.44;29.31
3654;BME280;70277;54.302;10.064;2023-06-22T11:11:37;101738.38;;;30.34;30.51
3654;BME280;70277;54.302;10.064;2023-06-22T11:14:04;101740.91;;;30.40;30.41
3654;BME280;70277;54.302;10.064;2023-06-22T11:16:31;101724.72;;;30.17;31.00
3654;BME280;70277;54.302;10.064;2023-06-22T11:18:57;101735.69;;;31.05;31.01
3654;BME280;70277;54.302;10.064;2023-06-22T11:21:23;101735.34;;;31.26;29.79
3654;BME280;70277;54.302;10.064;2023-06-22T11:23:50;101729.00;;;31.29;30.46
3654;BME280;70277;54.302;10.064;2023-06-22T11:26:18;101734.53;;;31.41;30.15
3654;BME280;70277;54.302;10.064;2023-06-22T11:28:45;101727.84;;;32.54;28.64
3654;BME280;70277;54.302;10.064;2023-06-22T11:31:11;101731.16;;;32.63;28.32
3654;BME280;70277;54.302;10.064;2023-06-22T11:33:51;101726.13;;;33.63;26.92
3654;BME280;70277;54.302;10.064;2023-06-22T11:36:18;101721.41;;;33.70;26.52
3654;BME280;70277;54.302;10.064;2023-06-22T11:38:44;101719.09;;;34.69;25.09
3654;BME280;70277;54.302;10.064;2023-06-22T11:41:11;101724.75;;;35.45;24.42
3654;BME280;70277;54.302;10.064;2023-06-22T11:43:37;101724.69;;;33.12;26.58
3654;BME280;70277;54.302;10.064;2023-06-22T11:46:04;101725.06;;;32.11;29.46
3654;BME280;70277;54.302;10.064;2023-06-22T11:48:31;101723.50;;;31.91;28.82
3654;BME280;70277;54.302;10.064;2023-06-22T11:50:57;101720.59;;;33.70;27.43
3654;BME280;70277;54.302;10.064;2023-06-22T11:53:26;101718.00;;;33.54;26.85
3654;BME280;70277;54.302;10.064;2023-06-22T11:55:53;101708.94;;;32.77;27.15
3654;BME280;70277;54.302;10.064;2023-06-22T11:58:22;101710.84;;;34.38;25.38
3654;BME280;70277;54.302;10.064;2023-06-22T12:00:48;101707.25;;;34.41;25.36
3654;BME280;70277;54.302;10.064;2023-06-22T12:03:18;101705.28;;;32.73;27.15
3654;BME280;70277;54.302;10.064;2023-06-22T12:05:45;101700.53;;;34.05;25.88
3654;BME280;70277;54.302;10.064;2023-06-22T12:08:12;101699.25;;;35.06;25.41
3654;BME280;70277;54.302;10.064;2023-06-22T12:10:40;101693.72;;;35.31;24.61
3654;BME280;70277;54.302;10.064;2023-06-22T12:13:06;101694.88;;;35.16;24.96
3654;BME280;70277;54.302;10.064;2023-06-22T12:15:33;101691.44;;;35.62;23.46
3654;BME280;70277;54.302;10.064;2023-06-22T12:17:59;101687.00;;;35.57;24.08
3654;BME280;70277;54.302;10.064;2023-06-22T12:20:27;101693.44;;;35.58;23.98
3654;BME280;70277;54.302;10.064;2023-06-22T12:22:54;101687.41;;;35.56;24.52
3654;BME280;70277;54.302;10.064;2023-06-22T12:25:22;101680.03;;;35.26;25.26
3654;BME280;70277;54.302;10.064;2023-06-22T12:27:49;101679.31;;;35.54;25.25
3654;BME280;70277;54.302;10.064;2023-06-22T12:30:16;101674.75;;;35.06;24.89
3654;BME280;70277;54.302;10.064;2023-06-22T12:32:42;101661.66;;;34.11;26.65
3654;BME280;70277;54.302;10.064;2023-06-22T12:35:09;101658.69;;;34.45;26.55
3654;BME280;70277;54.302;10.064;2023-06-22T12:37:43;101656.47;;;34.72;26.43
3654;BME280;70277;54.302;10.064;2023-06-22T12:40:10;101659.38;;;34.31;26.51
3654;BME280;70277;54.302;10.064;2023-06-22T12:42:36;101660.31;;;32.39;29.25
3654;BME280;70277;54.302;10.064;2023-06-22T12:45:04;101670.47;;;31.79;29.88
3654;BME280;70277;54.302;10.064;2023-06-22T12:47:30;101662.66;;;31.07;30.19
3654;BME280;70277;54.302;10.064;2023-06-22T12:49:57;101655.69;;;30.30;32.34
3654;BME280;70277;54.302;10.064;2023-06-22T12:52:23;101644.50;;;29.98;32.27
3654;BME280;70277;54.302;10.064;2023-06-22T12:54:50;101647.81;;;30.20;32.25
3654;BME280;70277;54.302;10.064;2023-06-22T12:57:21;101644.25;;;30.70;31.59